createdAt,value
2018-12-11T00:00:31.883Z,0.00
2018-12-11T00:01:31.885Z,0.00
2018-12-11T00:02:31.891Z,0.00
2018-12-11T00:03:31.899Z,0.00
2018-12-11T00:04:31.898Z,0.00
2018-12-11T00:05:31.900Z,0.00
2018-12-11T00:06:31.907Z,0.00
2018-12-11T00:07:31.908Z,0.00
2018-12-11T00:08:31.909Z,0.00
2018-12-11T00:09:31.915Z,0.00
2018-12-11T00:10:31.919Z,0.00
2018-12-11T00:11:33.965Z,0.00
2018-12-11T00:12:31.923Z,0.00
2018-12-11T00:13:31.931Z,0.00
2018-12-11T00:14:31.934Z,0.00
2018-12-11T00:15:31.938Z,0.00
2018-12-11T00:16:31.942Z,0.00
2018-12-11T00:17:31.941Z,0.00
2018-12-11T00:18:31.945Z,0.00
2018-12-11T00:19:31.949Z,0.00
2018-12-11T00:20:31.953Z,0.00
2018-12-11T00:21:31.956Z,0.00
2018-12-11T00:22:31.959Z,0.00
2018-12-11T00:23:31.965Z,0.00
2018-12-11T00:24:31.962Z,0.00
2018-12-11T00:25:31.967Z,0.00
2018-12-11T00:26:31.971Z,0.00
2018-12-11T00:27:31.975Z,0.00
2018-12-11T00:28:31.978Z,0.00
2018-12-11T00:29:31.981Z,0.00
2018-12-11T00:30:31.984Z,0.00
2018-12-11T00:31:31.988Z,0.00
2018-12-11T00:32:31.992Z,0.00
2018-12-11T00:33:31.996Z,0.00
2018-12-11T00:34:31.997Z,0.00
2018-12-11T00:35:32.000Z,0.00
2018-12-11T00:36:32.006Z,0.00
2018-12-11T00:37:32.007Z,0.00
2018-12-11T00:38:32.009Z,0.00
2018-12-11T00:39:32.013Z,0.00
2018-12-11T00:40:32.018Z,0.00
2018-12-11T00:41:32.020Z,0.00
2018-12-11T00:42:32.027Z,0.00
2018-12-11T00:43:32.028Z,0.00
2018-12-11T00:44:32.031Z,0.00
2018-12-11T00:45:32.034Z,0.00
2018-12-11T00:46:32.038Z,0.00
2018-12-11T00:47:32.039Z,0.00
2018-12-11T00:48:32.043Z,0.00
2018-12-11T00:49:32.048Z,0.00
2018-12-11T00:50:32.053Z,0.00
2018-12-11T00:51:32.060Z,0.00
2018-12-11T00:52:32.058Z,0.00
2018-12-11T00:53:32.062Z,0.00
2018-12-11T00:54:32.063Z,0.00
2018-12-11T00:55:32.066Z,0.00
2018-12-11T00:56:32.071Z,0.00
2018-12-11T00:57:32.074Z,0.00
2018-12-11T00:58:32.080Z,0.00
2018-12-11T00:59:32.083Z,0.00
2018-12-11T01:00:32.082Z,0.00
2018-12-11T01:01:32.087Z,0.00
2018-12-11T01:02:32.093Z,0.00
2018-12-11T01:03:32.096Z,0.00
2018-12-11T01:04:32.099Z,0.00
2018-12-11T01:05:32.104Z,0.00
2018-12-11T01:06:32.105Z,0.00
2018-12-11T01:07:32.107Z,0.00
2018-12-11T01:08:32.115Z,0.00
2018-12-11T01:09:32.117Z,0.00
2018-12-11T01:10:32.120Z,0.00
2018-12-11T01:11:32.122Z,0.00
2018-12-11T01:12:32.125Z,0.00
2018-12-11T01:13:32.132Z,0.00
2018-12-11T01:14:32.134Z,0.00
2018-12-11T01:15:32.139Z,0.00
2018-12-11T01:16:32.141Z,0.00
2018-12-11T01:17:32.145Z,0.00
2018-12-11T01:18:32.148Z,0.00
2018-12-11T01:19:32.152Z,0.00
2018-12-11T01:20:32.157Z,0.00
2018-12-11T01:21:32.170Z,0.00
2018-12-11T01:22:32.164Z,0.00
2018-12-11T01:23:32.166Z,0.00
2018-12-11T01:24:32.171Z,0.00
2018-12-11T01:25:32.173Z,0.00
2018-12-11T01:26:32.178Z,0.00
2018-12-11T01:27:32.180Z,0.00
2018-12-11T01:28:32.185Z,0.00
2018-12-11T01:29:32.188Z,0.00
2018-12-11T01:30:32.192Z,0.00
2018-12-11T01:31:32.193Z,0.00
2018-12-11T01:32:32.197Z,0.00
2018-12-11T01:33:32.205Z,0.00
2018-12-11T01:34:32.204Z,0.00
2018-12-11T01:35:32.207Z,0.00
2018-12-11T01:36:32.212Z,0.00
2018-12-11T01:37:32.214Z,0.00
2018-12-11T01:38:32.217Z,0.00
2018-12-11T01:39:32.220Z,0.00
2018-12-11T01:40:32.224Z,0.00
2018-12-11T01:41:32.228Z,0.00
2018-12-11T01:42:32.232Z,0.00
2018-12-11T01:43:32.233Z,0.00
2018-12-11T01:44:32.237Z,0.00
2018-12-11T01:45:32.243Z,0.00
2018-12-11T01:46:32.243Z,0.00
2018-12-11T01:47:32.247Z,0.00
2018-12-11T01:48:32.251Z,0.00
2018-12-11T01:49:32.256Z,0.00
2018-12-11T01:50:32.259Z,0.00
2018-12-11T01:51:32.268Z,0.00
2018-12-11T01:52:32.265Z,0.00
2018-12-11T01:53:32.270Z,0.00
2018-12-11T01:54:32.276Z,0.00
2018-12-11T01:55:32.275Z,0.00
2018-12-11T01:56:32.278Z,0.00
2018-12-11T01:57:32.284Z,0.00
2018-12-11T01:58:32.285Z,0.00
2018-12-11T01:59:32.286Z,0.00
2018-12-11T02:00:32.291Z,0.00
2018-12-11T02:01:32.297Z,0.00
2018-12-11T02:02:32.300Z,0.00
2018-12-11T02:03:32.306Z,0.00
2018-12-11T02:04:32.306Z,0.00
2018-12-11T02:05:32.309Z,0.00
2018-12-11T02:06:32.313Z,0.00
2018-12-11T02:07:32.316Z,0.00
2018-12-11T02:08:32.319Z,0.00
2018-12-11T02:09:32.322Z,0.00
2018-12-11T02:10:32.326Z,0.00
2018-12-11T02:11:32.329Z,0.00
2018-12-11T02:12:32.331Z,0.00
2018-12-11T02:13:32.335Z,0.00
2018-12-11T02:14:32.339Z,0.00
2018-12-11T02:15:32.343Z,0.00
2018-12-11T02:16:32.348Z,0.00
2018-12-11T02:17:32.351Z,0.00
2018-12-11T02:18:32.353Z,0.00
2018-12-11T02:19:32.355Z,0.00
2018-12-11T02:20:32.365Z,0.00
2018-12-11T02:21:32.362Z,0.00
2018-12-11T02:22:32.367Z,0.00
2018-12-11T02:23:32.372Z,0.00
2018-12-11T02:24:32.373Z,0.00
2018-12-11T02:25:32.375Z,0.00
2018-12-11T02:26:32.380Z,0.00
2018-12-11T02:27:32.381Z,0.00
2018-12-11T02:28:32.387Z,0.00
2018-12-11T02:29:32.389Z,0.00
2018-12-11T02:30:32.394Z,0.00
2018-12-11T02:31:32.396Z,0.00
2018-12-11T02:32:32.400Z,0.00
2018-12-11T02:33:32.405Z,0.00
2018-12-11T02:34:32.409Z,0.00
2018-12-11T02:35:32.410Z,0.00
2018-12-11T02:36:32.417Z,0.00
2018-12-11T02:37:32.419Z,0.00
2018-12-11T02:38:32.421Z,0.00
2018-12-11T02:39:32.423Z,0.00
2018-12-11T02:40:32.433Z,0.00
2018-12-11T02:41:32.434Z,0.00
2018-12-11T02:42:32.435Z,0.00
2018-12-11T02:43:32.438Z,0.00
2018-12-11T02:44:32.444Z,0.00
2018-12-11T02:45:32.448Z,0.00
2018-12-11T02:46:32.449Z,0.00
2018-12-11T02:47:32.467Z,0.00
2018-12-11T02:48:32.455Z,0.00
2018-12-11T02:49:32.466Z,0.00
2018-12-11T02:50:32.463Z,0.00
2018-12-11T02:51:32.467Z,0.00
2018-12-11T02:52:32.471Z,0.00
2018-12-11T02:53:32.472Z,0.00
2018-12-11T02:54:32.477Z,0.00
2018-12-11T02:55:32.479Z,0.00
2018-12-11T02:56:32.487Z,0.00
2018-12-11T02:57:32.504Z,0.00
2018-12-11T02:58:32.489Z,0.00
2018-12-11T02:59:32.494Z,0.00
2018-12-11T03:00:32.499Z,0.00
2018-12-11T03:01:32.500Z,0.00
2018-12-11T03:02:32.510Z,0.00
2018-12-11T03:03:32.509Z,0.00
2018-12-11T03:04:32.516Z,0.00
2018-12-11T03:05:32.516Z,0.00
2018-12-11T03:06:32.518Z,0.00
2018-12-11T03:07:32.522Z,0.00
2018-12-11T03:08:32.525Z,0.00
2018-12-11T03:09:32.539Z,0.00
2018-12-11T03:10:32.534Z,0.00
2018-12-11T03:11:32.535Z,0.00
2018-12-11T03:12:32.539Z,0.00
2018-12-11T03:13:32.542Z,0.00
2018-12-11T03:14:32.551Z,0.00
2018-12-11T03:15:32.549Z,0.00
2018-12-11T03:16:32.553Z,0.00
2018-12-11T03:17:32.556Z,0.00
2018-12-11T03:18:32.561Z,0.00
2018-12-11T03:19:32.564Z,0.00
2018-12-11T03:20:32.565Z,0.00
2018-12-11T03:21:32.568Z,0.00
2018-12-11T03:22:32.572Z,0.00
2018-12-11T03:23:32.573Z,0.00
2018-12-11T03:24:32.576Z,0.00
2018-12-11T03:25:32.584Z,0.00
2018-12-11T03:26:32.588Z,0.00
2018-12-11T03:27:32.590Z,0.00
2018-12-11T03:28:32.590Z,0.00
2018-12-11T03:29:32.594Z,0.00
2018-12-11T03:30:32.606Z,0.00
2018-12-11T03:31:32.606Z,0.00
2018-12-11T03:32:32.610Z,0.00
2018-12-11T03:33:32.607Z,0.00
2018-12-11T03:34:32.611Z,0.00
2018-12-11T03:35:32.611Z,0.00
2018-12-11T03:36:32.616Z,0.00
2018-12-11T03:37:32.621Z,0.00
2018-12-11T03:38:32.626Z,0.00
2018-12-11T03:39:32.624Z,0.00
2018-12-11T03:40:32.628Z,0.00
2018-12-11T03:41:32.632Z,0.00
2018-12-11T03:42:32.635Z,0.00
2018-12-11T03:43:32.648Z,0.00
2018-12-11T03:44:32.639Z,0.00
2018-12-11T03:45:32.648Z,0.00
2018-12-11T03:46:32.650Z,0.00
2018-12-11T03:47:32.649Z,0.00
2018-12-11T03:48:32.658Z,0.00
2018-12-11T03:49:32.674Z,0.00
2018-12-11T03:50:32.664Z,0.00
2018-12-11T03:51:32.664Z,0.00
2018-12-11T03:52:32.670Z,0.00
2018-12-11T03:53:32.672Z,0.00
2018-12-11T03:54:32.671Z,0.00
2018-12-11T03:55:32.675Z,0.00
2018-12-11T03:56:32.689Z,0.00
2018-12-11T03:57:32.683Z,0.00
2018-12-11T03:58:32.686Z,0.00
2018-12-11T03:59:32.770Z,0.00
2018-12-11T04:00:32.690Z,0.00
2018-12-11T04:01:32.698Z,0.00
2018-12-11T04:02:32.698Z,0.00
2018-12-11T04:03:32.702Z,0.00
2018-12-11T04:04:32.703Z,0.00
2018-12-11T04:05:32.708Z,0.00
2018-12-11T04:06:32.713Z,0.00
2018-12-11T04:07:32.715Z,0.00
2018-12-11T04:08:32.718Z,0.00
2018-12-11T04:09:32.719Z,0.00
2018-12-11T04:10:32.723Z,0.00
2018-12-11T04:11:32.727Z,0.00
2018-12-11T04:12:32.734Z,0.00
2018-12-11T04:13:32.733Z,0.00
2018-12-11T04:14:32.735Z,0.00
2018-12-11T04:15:32.738Z,0.00
2018-12-11T04:16:32.744Z,0.00
2018-12-11T04:17:32.747Z,0.00
2018-12-11T04:18:32.751Z,0.00
2018-12-11T04:19:32.756Z,0.00
2018-12-11T04:20:32.757Z,0.00
2018-12-11T04:21:32.761Z,0.00
2018-12-11T04:22:32.768Z,0.00
2018-12-11T04:23:32.764Z,0.00
2018-12-11T04:24:32.769Z,0.00
2018-12-11T04:25:32.772Z,0.00
2018-12-11T04:26:32.778Z,0.00
2018-12-11T04:27:32.779Z,0.00
2018-12-11T04:28:32.785Z,0.00
2018-12-11T04:29:32.786Z,0.00
2018-12-11T04:30:32.790Z,0.00
2018-12-11T04:31:32.794Z,0.00
2018-12-11T04:32:32.794Z,0.00
2018-12-11T04:33:32.800Z,0.00
2018-12-11T04:34:32.802Z,0.00
2018-12-11T04:35:32.807Z,0.00
2018-12-11T04:36:32.809Z,0.00
2018-12-11T04:37:32.813Z,0.00
2018-12-11T04:38:32.815Z,0.00
2018-12-11T04:39:34.018Z,0.00
2018-12-11T04:40:32.824Z,0.00
2018-12-11T04:41:32.827Z,0.00
2018-12-11T04:42:32.829Z,0.00
2018-12-11T04:43:32.836Z,0.00
2018-12-11T04:44:32.844Z,0.00
2018-12-11T04:45:32.841Z,0.00
2018-12-11T04:46:32.844Z,0.00
2018-12-11T04:47:32.846Z,0.00
2018-12-11T04:48:32.851Z,0.00
2018-12-11T04:49:32.854Z,0.00
2018-12-11T04:50:32.857Z,0.00
2018-12-11T04:51:32.862Z,0.00
2018-12-11T04:52:32.864Z,0.00
2018-12-11T04:53:32.870Z,0.00
2018-12-11T04:54:32.875Z,0.00
2018-12-11T04:55:32.877Z,0.00
2018-12-11T04:56:32.878Z,0.00
2018-12-11T04:57:32.883Z,0.00
2018-12-11T04:58:32.887Z,0.00
2018-12-11T04:59:32.888Z,0.00
2018-12-11T05:00:32.896Z,0.00
2018-12-11T05:01:32.897Z,0.00
2018-12-11T05:02:32.904Z,0.00
2018-12-11T05:03:32.905Z,0.00
2018-12-11T05:04:32.912Z,0.00
2018-12-11T05:05:32.911Z,0.00
2018-12-11T05:06:33.552Z,0.00
2018-12-11T05:07:32.915Z,0.00
2018-12-11T05:08:32.920Z,0.00
2018-12-11T05:09:32.922Z,0.00
2018-12-11T05:10:32.934Z,0.00
2018-12-11T05:11:32.931Z,0.00
2018-12-11T05:12:32.936Z,0.00
2018-12-11T05:13:32.932Z,0.00
2018-12-11T05:14:32.945Z,0.00
2018-12-11T05:15:32.940Z,0.00
2018-12-11T05:16:32.944Z,0.00
2018-12-11T05:17:32.947Z,0.00
2018-12-11T05:18:32.951Z,0.00
2018-12-11T05:19:32.955Z,0.00
2018-12-11T05:20:32.956Z,0.00
2018-12-11T05:21:32.967Z,0.00
2018-12-11T05:22:32.963Z,0.00
2018-12-11T05:23:32.968Z,0.00
2018-12-11T05:24:32.971Z,0.00
2018-12-11T05:25:32.973Z,0.00
2018-12-11T05:26:32.976Z,0.00
2018-12-11T05:27:32.981Z,0.00
2018-12-11T05:28:32.981Z,0.00
2018-12-11T05:29:32.990Z,0.00
2018-12-11T05:30:32.987Z,0.00
2018-12-11T05:31:32.987Z,0.00
2018-12-11T05:32:32.993Z,0.00
2018-12-11T05:33:33.000Z,0.00
2018-12-11T05:34:32.999Z,0.00
2018-12-11T05:35:33.001Z,0.00
2018-12-11T05:36:33.004Z,0.00
2018-12-11T05:37:33.008Z,0.00
2018-12-11T05:38:33.011Z,0.00
2018-12-11T05:39:33.013Z,0.00
2018-12-11T05:40:33.014Z,0.00
2018-12-11T05:41:33.020Z,0.00
2018-12-11T05:42:33.020Z,0.00
2018-12-11T05:43:33.029Z,0.00
2018-12-11T05:44:33.027Z,0.00
2018-12-11T05:45:33.028Z,0.00
2018-12-11T05:46:33.032Z,0.00
2018-12-11T05:47:33.034Z,0.00
2018-12-11T05:48:33.038Z,0.00
2018-12-11T05:49:33.042Z,0.00
2018-12-11T05:50:33.044Z,0.00
2018-12-11T05:51:33.049Z,0.00
2018-12-11T05:52:33.049Z,0.00
2018-12-11T05:53:33.057Z,0.00
2018-12-11T05:54:33.056Z,0.00
2018-12-11T05:55:33.058Z,0.00
2018-12-11T05:56:33.061Z,0.00
2018-12-11T05:57:33.067Z,0.00
2018-12-11T05:58:33.069Z,0.00
2018-12-11T05:59:33.070Z,0.00
2018-12-11T06:00:33.084Z,0.00
2018-12-11T06:01:33.076Z,0.00
2018-12-11T06:02:33.080Z,0.00
2018-12-11T06:03:33.080Z,0.00
2018-12-11T06:04:33.084Z,0.00
2018-12-11T06:05:33.089Z,0.00
2018-12-11T06:06:33.090Z,0.00
2018-12-11T06:07:33.101Z,0.00
2018-12-11T06:08:33.098Z,0.00
2018-12-11T06:09:33.100Z,0.00
2018-12-11T06:10:33.106Z,0.00
2018-12-11T06:11:33.107Z,0.00
2018-12-11T06:12:33.108Z,0.00
2018-12-11T06:13:33.116Z,0.00
2018-12-11T06:14:33.119Z,0.00
2018-12-11T06:15:33.117Z,0.00
2018-12-11T06:16:33.164Z,0.00
2018-12-11T06:17:33.125Z,0.00
2018-12-11T06:18:33.131Z,0.00
2018-12-11T06:19:33.130Z,0.00
2018-12-11T06:20:34.520Z,0.00
2018-12-11T06:21:33.164Z,0.00
2018-12-11T06:22:33.138Z,0.00
2018-12-11T06:23:33.141Z,0.00
2018-12-11T06:24:33.145Z,0.00
2018-12-11T06:25:33.150Z,0.00
2018-12-11T06:26:33.150Z,0.00
2018-12-11T06:27:33.153Z,0.00
2018-12-11T06:28:33.155Z,0.00
2018-12-11T06:29:33.165Z,0.00
2018-12-11T06:30:33.163Z,0.00
2018-12-11T06:31:33.163Z,0.00
2018-12-11T06:32:33.168Z,0.00
2018-12-11T06:33:33.170Z,0.00
2018-12-11T06:34:33.175Z,0.00
2018-12-11T06:35:33.181Z,0.00
2018-12-11T06:36:33.181Z,0.00
2018-12-11T06:37:33.184Z,4.00
2018-12-11T06:38:33.191Z,0.00
2018-12-11T06:39:33.191Z,0.00
2018-12-11T06:40:33.192Z,4.00
2018-12-11T06:41:33.199Z,4.00
2018-12-11T06:42:33.198Z,4.00
2018-12-11T06:43:33.202Z,4.00
2018-12-11T06:44:33.204Z,0.00
2018-12-11T06:45:33.207Z,4.00
2018-12-11T06:46:33.210Z,8.00
2018-12-11T06:47:33.212Z,4.00
2018-12-11T06:48:33.215Z,4.00
2018-12-11T06:49:33.221Z,8.00
2018-12-11T06:50:33.224Z,8.00
2018-12-11T06:51:33.227Z,12.00
2018-12-11T06:52:33.227Z,12.00
2018-12-11T06:53:33.232Z,12.00
2018-12-11T06:54:33.239Z,12.00
2018-12-11T06:55:33.236Z,16.00
2018-12-11T06:56:33.238Z,20.00
2018-12-11T06:57:33.243Z,20.00
2018-12-11T06:58:33.247Z,20.00
2018-12-11T06:59:33.249Z,24.00
2018-12-11T07:00:33.252Z,24.00
2018-12-11T07:01:33.257Z,24.00
2018-12-11T07:02:33.258Z,28.00
2018-12-11T07:03:33.260Z,32.00
2018-12-11T07:04:33.264Z,32.00
2018-12-11T07:05:33.266Z,40.00
2018-12-11T07:06:33.270Z,40.00
2018-12-11T07:07:33.271Z,44.00
2018-12-11T07:08:33.275Z,44.00
2018-12-11T07:09:33.279Z,48.00
2018-12-11T07:10:33.283Z,52.00
2018-12-11T07:11:33.285Z,52.00
2018-12-11T07:12:33.286Z,60.00
2018-12-11T07:13:33.290Z,60.00
2018-12-11T07:14:33.293Z,64.00
2018-12-11T07:15:33.294Z,64.00
2018-12-11T07:16:33.300Z,68.00
2018-12-11T07:17:33.301Z,72.00
2018-12-11T07:18:33.305Z,76.00
2018-12-11T07:19:33.307Z,76.00
2018-12-11T07:20:33.309Z,80.00
2018-12-11T07:21:33.313Z,84.00
2018-12-11T07:22:33.315Z,88.00
2018-12-11T07:23:33.318Z,92.00
2018-12-11T07:24:33.318Z,96.00
2018-12-11T07:25:33.324Z,96.00
2018-12-11T07:26:33.328Z,100.00
2018-12-11T07:27:33.327Z,108.00
2018-12-11T07:28:33.342Z,112.00
2018-12-11T07:29:33.334Z,116.00
2018-12-11T07:30:33.338Z,124.00
2018-12-11T07:31:33.338Z,132.00
2018-12-11T07:32:33.341Z,140.00
2018-12-11T07:33:33.345Z,152.00
2018-12-11T07:34:33.351Z,156.00
2018-12-11T07:35:33.349Z,160.00
2018-12-11T07:36:33.351Z,164.00
2018-12-11T07:37:33.356Z,172.00
2018-12-11T07:38:34.732Z,184.00
2018-12-11T07:39:33.363Z,192.00
2018-12-11T07:40:33.364Z,204.00
2018-12-11T07:41:33.372Z,216.00
2018-12-11T07:42:33.371Z,224.00
2018-12-11T07:43:33.372Z,224.00
2018-12-11T07:44:33.375Z,224.00
2018-12-11T07:45:33.399Z,224.00
2018-12-11T07:46:33.383Z,220.00
2018-12-11T07:47:33.383Z,224.00
2018-12-11T07:48:33.388Z,232.00
2018-12-11T07:49:33.391Z,244.00
2018-12-11T07:50:33.394Z,248.00
2018-12-11T07:51:33.394Z,244.00
2018-12-11T07:52:33.398Z,232.00
2018-12-11T07:53:33.403Z,220.00
2018-12-11T07:54:33.405Z,216.00
2018-12-11T07:55:33.407Z,220.00
2018-12-11T07:56:33.408Z,224.00
2018-12-11T07:57:33.411Z,236.00
2018-12-11T07:58:33.416Z,228.00
2018-12-11T07:59:33.418Z,228.00
2018-12-11T08:00:33.423Z,224.00
2018-12-11T08:01:33.424Z,236.00
2018-12-11T08:02:33.430Z,236.00
2018-12-11T08:03:33.430Z,232.00
2018-12-11T08:04:33.434Z,224.00
2018-12-11T08:05:33.438Z,224.00
2018-12-11T08:06:33.439Z,224.00
2018-12-11T08:07:33.443Z,228.00
2018-12-11T08:08:33.447Z,224.00
2018-12-11T08:09:33.450Z,220.00
2018-12-11T08:10:33.452Z,216.00
2018-12-11T08:11:33.455Z,220.00
2018-12-11T08:12:33.460Z,220.00
2018-12-11T08:13:33.460Z,216.00
2018-12-11T08:14:33.467Z,220.00
2018-12-11T08:15:33.465Z,220.00
2018-12-11T08:16:33.470Z,224.00
2018-12-11T08:17:33.470Z,224.00
2018-12-11T08:18:33.476Z,228.00
2018-12-11T08:19:33.477Z,232.00
2018-12-11T08:20:33.480Z,240.00
2018-12-11T08:21:33.485Z,240.00
2018-12-11T08:22:33.487Z,240.00
2018-12-11T08:23:33.493Z,240.00
2018-12-11T08:24:33.500Z,240.00
2018-12-11T08:25:33.497Z,240.00
2018-12-11T08:26:33.498Z,244.00
2018-12-11T08:27:33.505Z,252.00
2018-12-11T08:28:33.505Z,268.00
2018-12-11T08:29:33.506Z,284.00
2018-12-11T08:30:33.510Z,356.00
2018-12-11T08:31:33.514Z,584.00
2018-12-11T08:32:33.516Z,836.00
2018-12-11T08:33:33.517Z,1032.00
2018-12-11T08:34:33.520Z,1096.00
2018-12-11T08:35:33.525Z,1120.00
2018-12-11T08:36:33.526Z,1152.00
2018-12-11T08:37:33.531Z,1188.00
2018-12-11T08:38:33.534Z,1204.00
2018-12-11T08:39:33.537Z,1216.00
2018-12-11T08:40:33.541Z,1220.00
2018-12-11T08:41:33.544Z,1208.00
2018-12-11T08:42:33.548Z,1196.00
2018-12-11T08:43:33.551Z,1216.00
2018-12-11T08:44:33.556Z,1236.00
2018-12-11T08:45:33.561Z,1252.00
2018-12-11T08:46:33.574Z,1272.00
2018-12-11T08:47:33.569Z,1296.00
2018-12-11T08:48:33.575Z,1328.00
2018-12-11T08:49:33.578Z,1360.00
2018-12-11T08:50:33.588Z,1392.00
2018-12-11T08:51:33.589Z,1412.00
2018-12-11T08:52:33.600Z,1440.00
2018-12-11T08:53:33.599Z,1468.00
2018-12-11T08:54:33.605Z,1496.00
2018-12-11T08:55:33.611Z,1512.00
2018-12-11T08:56:33.617Z,1528.00
2018-12-11T08:57:33.619Z,1536.00
2018-12-11T08:58:33.624Z,1552.00
2018-12-11T08:59:33.629Z,1576.00
2018-12-11T09:00:33.639Z,1592.00
2018-12-11T09:01:33.643Z,1612.00
2018-12-11T09:02:33.649Z,1636.00
2018-12-11T09:03:33.653Z,1652.00
2018-12-11T09:04:33.662Z,1696.00
2018-12-11T09:05:33.666Z,1716.00
2018-12-11T09:06:33.672Z,1736.00
2018-12-11T09:07:33.685Z,1764.00
2018-12-11T09:08:33.682Z,1796.00
2018-12-11T09:09:33.688Z,1816.00
2018-12-11T09:10:33.695Z,1844.00
2018-12-11T09:11:33.699Z,1860.00
2018-12-11T09:12:33.712Z,1880.00
2018-12-11T09:13:33.714Z,1900.00
2018-12-11T09:14:33.718Z,1920.00
2018-12-11T09:15:33.727Z,1936.00
2018-12-11T09:16:33.730Z,1956.00
2018-12-11T09:17:33.741Z,1976.00
2018-12-11T09:18:33.743Z,1988.00
2018-12-11T09:19:33.749Z,2004.00
2018-12-11T09:20:33.759Z,2016.00
2018-12-11T09:21:33.761Z,2032.00
2018-12-11T09:22:33.769Z,2052.00
2018-12-11T09:23:33.775Z,2068.00
2018-12-11T09:24:33.781Z,2084.00
2018-12-11T09:25:33.786Z,2104.00
2018-12-11T09:26:33.793Z,2116.00
2018-12-11T09:27:33.800Z,2132.00
2018-12-11T09:28:33.805Z,2152.00
2018-12-11T09:29:33.812Z,2160.00
2018-12-11T09:30:33.820Z,2188.00
2018-12-11T09:31:33.828Z,2204.00
2018-12-11T09:32:33.829Z,2220.00
2018-12-11T09:33:33.841Z,2244.00
2018-12-11T09:34:33.845Z,2264.00
2018-12-11T09:35:33.850Z,2280.00
2018-12-11T09:36:33.857Z,2304.00
2018-12-11T09:37:33.865Z,2324.00
2018-12-11T09:38:33.870Z,2356.00
2018-12-11T09:39:33.874Z,2380.00
2018-12-11T09:40:33.883Z,2404.00
2018-12-11T09:41:33.890Z,2436.00
2018-12-11T09:42:33.896Z,2456.00
2018-12-11T09:43:33.901Z,2488.00
2018-12-11T09:44:33.909Z,2516.00
2018-12-11T09:45:33.914Z,2544.00
2018-12-11T09:46:33.919Z,2568.00
2018-12-11T09:47:33.923Z,2600.00
2018-12-11T09:48:33.934Z,2620.00
2018-12-11T09:49:33.943Z,2644.00
2018-12-11T09:50:33.943Z,2668.00
2018-12-11T09:51:33.949Z,2692.00
2018-12-11T09:52:33.959Z,2716.00
2018-12-11T09:53:33.966Z,2740.00
2018-12-11T09:54:33.970Z,2764.00
2018-12-11T09:55:33.977Z,2788.00
2018-12-11T09:56:33.982Z,2808.00
2018-12-11T09:57:33.990Z,2832.00
2018-12-11T09:58:33.998Z,2844.00
2018-12-11T09:59:34.004Z,2868.00
2018-12-11T10:00:34.036Z,2880.00
2018-12-11T10:01:34.020Z,2904.00
2018-12-11T10:02:34.028Z,2912.00
2018-12-11T10:03:34.046Z,2932.00
2018-12-11T10:04:34.040Z,2952.00
2018-12-11T10:05:34.047Z,2964.00
2018-12-11T10:06:34.054Z,2976.00
2018-12-11T10:07:34.061Z,2992.00
2018-12-11T10:08:34.069Z,3008.00
2018-12-11T10:09:34.077Z,3016.00
2018-12-11T10:10:34.083Z,3028.00
2018-12-11T10:11:34.088Z,3048.00
2018-12-11T10:12:34.097Z,3068.00
2018-12-11T10:13:34.105Z,3072.00
2018-12-11T10:14:34.113Z,3084.00
2018-12-11T10:15:34.118Z,3092.00
2018-12-11T10:16:34.132Z,3104.00
2018-12-11T10:17:34.135Z,3112.00
2018-12-11T10:18:34.143Z,3124.00
2018-12-11T10:22:34.174Z,3172.00
2018-12-11T10:24:34.186Z,3180.00
2018-12-11T10:25:34.197Z,3200.00
2018-12-11T10:31:34.239Z,3256.00
2018-12-11T10:32:34.249Z,3264.00
2018-12-11T10:33:34.254Z,3276.00
2018-12-11T10:34:34.266Z,3268.00
2018-12-11T10:35:34.271Z,3296.00
2018-12-11T10:36:34.279Z,3296.00
2018-12-11T10:37:34.287Z,3304.00
2018-12-11T10:38:34.295Z,3324.00
2018-12-11T10:39:34.304Z,3324.00
2018-12-11T10:40:34.310Z,3328.00
2018-12-11T10:41:34.319Z,3344.00
2018-12-11T10:42:34.328Z,3340.00
2018-12-11T10:43:34.332Z,3356.00
2018-12-11T10:44:34.342Z,3360.00
2018-12-11T10:45:34.352Z,3368.00
2018-12-11T10:46:34.361Z,3384.00
2018-12-11T10:47:34.366Z,3384.00
2018-12-11T10:48:34.376Z,3392.00
2018-12-11T10:49:34.387Z,3392.00
2018-12-11T10:50:34.394Z,3400.00
2018-12-11T10:51:34.403Z,3408.00
2018-12-11T10:52:34.409Z,3412.00
2018-12-11T10:53:34.417Z,3416.00
2018-12-11T10:54:34.427Z,3428.00
2018-12-11T10:55:34.435Z,3428.00
2018-12-11T10:56:34.445Z,3436.00
2018-12-11T10:57:34.454Z,3440.00
2018-12-11T10:58:34.461Z,3444.00
2018-12-11T10:59:34.472Z,3444.00
2018-12-11T11:00:34.482Z,3444.00
2018-12-11T11:01:34.491Z,3452.00
2018-12-11T11:02:34.501Z,3468.00
2018-12-11T11:03:34.508Z,3468.00
2018-12-11T11:04:34.520Z,3476.00
2018-12-11T11:05:34.530Z,3472.00
2018-12-11T11:06:34.536Z,3476.00
2018-12-11T11:07:34.547Z,3480.00
2018-12-11T11:08:34.559Z,3480.00
2018-12-11T11:09:34.570Z,3488.00
2018-12-11T11:10:34.580Z,3488.00
2018-12-11T11:11:34.621Z,3496.00
2018-12-11T11:12:34.607Z,3496.00
2018-12-11T11:13:34.614Z,3504.00
2018-12-11T11:14:34.636Z,3508.00
2018-12-11T11:15:34.630Z,3512.00
2018-12-11T11:16:34.643Z,3504.00
2018-12-11T11:17:34.681Z,3512.00
2018-12-11T11:18:34.666Z,3512.00
2018-12-11T11:19:34.677Z,3512.00
2018-12-11T11:20:34.687Z,3520.00
2018-12-11T11:21:34.698Z,3516.00
2018-12-11T11:22:34.710Z,3520.00
2018-12-11T11:23:34.721Z,3516.00
2018-12-11T11:24:34.735Z,3512.00
2018-12-11T11:25:34.747Z,3528.00
2018-12-11T11:26:34.757Z,3532.00
2018-12-11T11:27:34.768Z,3536.00
2018-12-11T11:28:34.781Z,3536.00
2018-12-11T11:29:34.794Z,3532.00
2018-12-11T11:30:34.807Z,3536.00
2018-12-11T11:31:34.814Z,3540.00
2018-12-11T11:32:34.828Z,3536.00
2018-12-11T11:33:34.842Z,3540.00
2018-12-11T11:34:34.860Z,3532.00
2018-12-11T11:35:34.865Z,3536.00
2018-12-11T11:36:34.877Z,3536.00
2018-12-11T11:37:34.893Z,3540.00
2018-12-11T11:38:34.906Z,3536.00
2018-12-11T11:39:34.913Z,3536.00
2018-12-11T11:40:34.928Z,3532.00
2018-12-11T11:41:34.938Z,3544.00
2018-12-11T11:42:34.952Z,3532.00
2018-12-11T11:43:34.964Z,3532.00
2018-12-11T11:44:34.976Z,3528.00
2018-12-11T11:45:34.990Z,3528.00
2018-12-11T11:46:35.009Z,3528.00
2018-12-11T11:47:35.018Z,3524.00
2018-12-11T11:48:35.028Z,3520.00
2018-12-11T11:49:35.043Z,3520.00
2018-12-11T11:50:35.059Z,3516.00
2018-12-11T11:51:35.077Z,3516.00
2018-12-11T11:52:35.084Z,3516.00
2018-12-11T11:53:35.095Z,3512.00
2018-12-11T11:54:35.108Z,3516.00
2018-12-11T11:55:35.122Z,3508.00
2018-12-11T11:56:35.134Z,3504.00
2018-12-11T11:57:35.147Z,3500.00
2018-12-11T11:58:35.162Z,3504.00
2018-12-11T11:59:35.178Z,3500.00
2018-12-11T12:00:35.188Z,3496.00
2018-12-11T12:01:35.203Z,3488.00
2018-12-11T12:02:35.219Z,3496.00
2018-12-11T12:03:35.230Z,3488.00
2018-12-11T12:04:35.244Z,3488.00
2018-12-11T12:05:35.260Z,3480.00
2018-12-11T12:06:35.273Z,3476.00
2018-12-11T12:07:35.286Z,3476.00
2018-12-11T12:08:35.299Z,3468.00
2018-12-11T12:09:35.315Z,3464.00
2018-12-11T12:10:35.328Z,3464.00
2018-12-11T12:11:35.340Z,3464.00
2018-12-11T12:12:36.280Z,3460.00
2018-12-11T12:13:35.367Z,3452.00
2018-12-11T12:14:35.381Z,3444.00
2018-12-11T12:15:35.395Z,3444.00
2018-12-11T12:16:35.411Z,3436.00
2018-12-11T12:17:35.422Z,3436.00
2018-12-11T12:18:35.437Z,3432.00
2018-12-11T12:19:35.452Z,3400.00
2018-12-11T12:20:35.464Z,3424.00
2018-12-11T12:21:35.482Z,3416.00
2018-12-11T12:22:35.493Z,3416.00
2018-12-11T12:23:35.507Z,3408.00
2018-12-11T12:24:35.520Z,3400.00
2018-12-11T12:25:35.538Z,3396.00
2018-12-11T12:26:35.552Z,3388.00
2018-12-11T12:27:35.565Z,3388.00
2018-12-11T12:28:35.576Z,3380.00
2018-12-11T12:29:35.592Z,3376.00
2018-12-11T12:30:35.616Z,3368.00
2018-12-11T12:31:35.621Z,3356.00
2018-12-11T12:32:35.632Z,3352.00
2018-12-11T12:33:35.648Z,3348.00
2018-12-11T12:34:35.667Z,3344.00
2018-12-11T12:35:35.676Z,3340.00
2018-12-11T12:36:35.691Z,3328.00
2018-12-11T12:37:35.705Z,3324.00
2018-12-11T12:38:35.720Z,3316.00
2018-12-11T12:39:35.736Z,3312.00
2018-12-11T12:40:35.750Z,3304.00
2018-12-11T12:41:35.765Z,3296.00
2018-12-11T12:42:35.779Z,3292.00
2018-12-11T12:43:35.795Z,3284.00
2018-12-11T12:44:35.807Z,3276.00
2018-12-11T12:45:35.825Z,3268.00
2018-12-11T12:46:35.839Z,3264.00
2018-12-11T12:47:35.856Z,3260.00
2018-12-11T12:48:35.867Z,3248.00
2018-12-11T12:49:35.883Z,3240.00
2018-12-11T12:50:35.897Z,3236.00
2018-12-11T12:51:35.913Z,3224.00
2018-12-11T12:52:35.932Z,3220.00
2018-12-11T12:53:35.942Z,3208.00
2018-12-11T12:54:35.957Z,3208.00
2018-12-11T12:55:35.972Z,3200.00
2018-12-11T12:56:35.988Z,3164.00